Terminal Aerodrome Forecast
Issued by NWS

Home | Current Version | Previous Version | Graphics & Text | Print | Product List | Glossary On
Versions: 1 2 3 4 5 6 7 8 9 10 11 12 13 14 15 16 17
000
FTUS43 KMPX 251120
TAFRNH
TAF
KRNH 251120Z 2512/2612 21008KT 2SM BR OVC004
     FM251400 23012G20KT P6SM BKN011 OVC020
     FM251800 26021G29KT P6SM OVC022
     FM260100 29015G22KT P6SM BKN040
     FM260600 30011KT P6SM SKC=

USA.gov is the U.S. government's official web portal to all federal, state and local government web resources and services.